createdAt,value
2022-09-23T00:02:54.292Z,5.23
2022-09-23T00:05:45.524Z,5.83
2022-09-23T00:08:50.862Z,6.40
2022-09-23T00:11:47.452Z,5.67
2022-09-23T00:14:59.311Z,5.83
2022-09-23T00:17:55.083Z,4.97
2022-09-23T00:20:55.447Z,7.53
2022-09-23T00:23:44.854Z,4.97
2022-09-23T00:26:36.267Z,5.57
2022-09-23T00:29:27.420Z,5.50
2022-09-23T00:32:25.527Z,5.97
2022-09-23T00:35:35.308Z,6.30
2022-09-23T00:38:40.868Z,6.03
2022-09-23T00:41:37.488Z,6.30
2022-09-23T00:44:50.527Z,4.73
2022-09-23T00:48:02.097Z,5.53
2022-09-23T00:51:02.703Z,5.97
2022-09-23T00:53:54.048Z,6.10
2022-09-23T00:56:47.727Z,7.20
2022-09-23T00:59:44.925Z,6.47
2022-09-23T01:02:41.551Z,7.83
2022-09-23T01:05:42.779Z,5.83
2022-09-23T01:08:41.270Z,5.63
2022-09-23T01:12:12.295Z,5.83
2022-09-23T01:15:14.446Z,5.77
2022-09-23T01:18:19.202Z,5.50
2022-09-23T01:21:30.695Z,7.07
2022-09-23T01:24:52.497Z,4.73
2022-09-23T01:27:56.167Z,5.87
2022-09-23T01:31:06.573Z,6.73
2022-09-23T01:34:02.779Z,5.97
2022-09-23T01:36:54.589Z,5.73
2022-09-23T01:39:57.994Z,6.43
2022-09-23T01:42:54.561Z,5.23
2022-09-23T01:45:48.287Z,6.90
2022-09-23T01:48:55.742Z,7.80
2022-09-23T01:51:56.855Z,5.67
2022-09-23T01:54:59.720Z,7.03
2022-09-23T01:58:04.721Z,5.77
2022-09-23T02:01:02.442Z,4.80
2022-09-23T02:04:09.267Z,5.77
2022-09-23T02:07:06.030Z,5.00
2022-09-23T02:10:05.590Z,7.27
2022-09-23T02:13:04.079Z,5.70
2022-09-23T02:16:03.285Z,5.60
2022-09-23T02:19:08.862Z,6.47
2022-09-23T02:22:11.643Z,5.40
2022-09-23T02:25:15.835Z,5.47
2022-09-23T02:28:11.791Z,4.97
2022-09-23T02:31:10.389Z,4.83
2022-09-23T02:34:27.548Z,6.20
2022-09-23T02:37:32.399Z,5.60
2022-09-23T02:40:26.108Z,5.63
2022-09-23T02:43:23.438Z,4.83
2022-09-23T02:46:16.264Z,5.77
2022-09-23T02:49:18.652Z,4.97
2022-09-23T02:52:16.194Z,5.43
2022-09-23T02:55:20.452Z,5.90
2022-09-23T02:58:11.554Z,7.10
2022-09-23T03:01:08.812Z,5.60
2022-09-23T03:04:14.896Z,5.00
2022-09-23T03:07:26.442Z,5.40
2022-09-23T03:10:21.554Z,4.97
2022-09-23T03:13:26.059Z,4.53
2022-09-23T03:16:29.312Z,5.17
2022-09-23T03:19:22.578Z,5.17
2022-09-23T03:22:36.663Z,4.40
2022-09-23T03:25:29.235Z,7.13
2022-09-23T03:28:24.455Z,5.13
2022-09-23T03:31:18.918Z,7.13
2022-09-23T03:34:17.276Z,5.70
2022-09-23T03:37:23.094Z,5.13
2022-09-23T03:40:28.300Z,7.37
2022-09-23T03:43:25.265Z,5.73
2022-09-23T03:46:22.622Z,5.33
2022-09-23T03:49:18.112Z,5.77
2022-09-23T03:52:14.364Z,5.10
2022-09-23T03:55:19.327Z,6.43
2022-09-23T03:58:29.319Z,5.10
2022-09-23T04:01:29.099Z,6.30
2022-09-23T04:04:32.104Z,5.60
2022-09-23T04:07:36.681Z,5.83
2022-09-23T04:10:40.736Z,5.60
2022-09-23T04:13:46.854Z,7.90
2022-09-23T04:16:49.639Z,5.77
2022-09-23T04:19:53.837Z,5.40
2022-09-23T04:22:45.351Z,6.00
2022-09-23T04:25:47.310Z,6.20
2022-09-23T04:28:47.320Z,5.50
2022-09-23T04:31:42.778Z,6.30
2022-09-23T04:34:34.052Z,5.40
2022-09-23T04:37:27.415Z,5.40
2022-09-23T04:40:21.472Z,6.20
2022-09-23T04:43:18.225Z,5.47
2022-09-23T04:46:30.130Z,5.33
2022-09-23T04:49:32.763Z,6.47
2022-09-23T04:52:26.695Z,13.13
2022-09-23T04:55:19.219Z,10.37
2022-09-23T04:58:10.440Z,9.87
2022-09-23T05:01:14.459Z,10.00
2022-09-23T05:04:20.023Z,9.07
2022-09-23T05:07:23.784Z,11.03
2022-09-23T05:10:27.590Z,8.07
2022-09-23T05:13:21.358Z,10.67
2022-09-23T05:16:30.075Z,10.00
2022-09-23T05:19:29.672Z,7.13
2022-09-23T05:22:23.731Z,8.07
2022-09-23T05:25:17.002Z,7.10
2022-09-23T05:28:12.660Z,7.33
2022-09-23T05:31:08.351Z,5.93
2022-09-23T05:34:00.728Z,6.03
2022-09-23T05:37:09.078Z,8.37
2022-09-23T05:40:06.215Z,7.50
2022-09-23T05:43:00.891Z,7.03
2022-09-23T05:45:58.863Z,6.67
2022-09-23T05:49:01.816Z,6.20
2022-09-23T05:52:07.886Z,7.13
2022-09-23T05:55:15.269Z,6.00
2022-09-23T05:58:07.751Z,5.67
2022-09-23T06:00:58.215Z,6.70
2022-09-23T06:03:48.936Z,7.70
2022-09-23T06:06:43.496Z,10.00
2022-09-23T06:09:51.521Z,8.37
2022-09-23T06:12:47.967Z,7.63
2022-09-23T06:15:40.765Z,7.07
2022-09-23T06:18:45.216Z,7.50
2022-09-23T06:21:45.784Z,8.80
2022-09-23T06:24:42.053Z,8.47
2022-09-23T06:27:46.217Z,7.37
2022-09-23T06:30:52.162Z,7.33
2022-09-23T06:34:02.459Z,7.40
2022-09-23T06:36:56.139Z,7.87
2022-09-23T06:40:02.444Z,7.30
2022-09-23T06:43:02.537Z,6.70
2022-09-23T06:46:03.190Z,7.70
2022-09-23T06:49:03.145Z,6.40
2022-09-23T06:51:57.439Z,4.50
2022-09-23T06:54:56.756Z,4.30
2022-09-23T06:57:58.267Z,7.97
2022-09-23T07:00:48.658Z,6.17
2022-09-23T07:03:46.446Z,5.20
2022-09-23T07:06:40.194Z,4.93
2022-09-23T07:09:43.699Z,5.00
2022-09-23T07:12:40.925Z,5.73
2022-09-23T07:15:46.287Z,3.70
2022-09-23T07:18:50.804Z,3.80
2022-09-23T07:21:54.316Z,3.33
2022-09-23T07:24:46.912Z,3.13
2022-09-23T07:27:56.820Z,3.90
2022-09-23T07:30:58.084Z,3.40
2022-09-23T07:33:51.519Z,3.80
2022-09-23T07:36:44.896Z,4.13
2022-09-23T07:39:48.129Z,5.33
2022-09-23T07:42:55.461Z,4.70
2022-09-23T07:45:59.229Z,8.07
2022-09-23T07:48:49.958Z,6.63
2022-09-23T07:51:40.878Z,4.73
2022-09-23T07:54:36.853Z,10.77
2022-09-23T07:57:28.720Z,5.57
2022-09-23T08:00:34.245Z,5.50
2022-09-23T08:03:36.107Z,5.60
2022-09-23T08:06:42.148Z,4.77
2022-09-23T08:09:34.176Z,6.23
2022-09-23T08:12:30.302Z,5.63
2022-09-23T08:15:28.663Z,6.90
2022-09-23T08:18:20.535Z,3.73
2022-09-23T08:21:19.606Z,4.57
2022-09-23T08:24:12.773Z,6.30
2022-09-23T08:27:04.297Z,4.00
2022-09-23T08:29:58.025Z,5.30
2022-09-23T08:33:01.595Z,4.43
2022-09-23T08:35:58.026Z,5.03
2022-09-23T08:38:54.396Z,8.20
2022-09-23T08:41:58.487Z,3.70
2022-09-23T08:44:57.653Z,4.00
2022-09-23T08:48:00.051Z,9.03
2022-09-23T08:51:11.727Z,4.10
2022-09-23T08:54:15.796Z,9.00
2022-09-23T08:57:13.951Z,8.50
2022-09-23T09:00:04.878Z,7.00
2022-09-23T09:03:03.769Z,6.53
2022-09-23T09:06:14.331Z,5.00
2022-09-23T09:09:11.841Z,4.97
2022-09-23T09:12:16.367Z,4.13
2022-09-23T09:15:15.844Z,7.87
2022-09-23T09:18:19.802Z,5.23
2022-09-23T09:21:28.023Z,6.00
2022-09-23T09:24:25.949Z,6.20
2022-09-23T09:27:15.714Z,4.17
2022-09-23T09:30:07.060Z,3.13
2022-09-23T09:33:06.925Z,4.33
2022-09-23T09:36:08.645Z,3.47
2022-09-23T09:39:03.958Z,2.73
2022-09-23T09:45:34.067Z,5.23
2022-09-23T09:48:36.780Z,2.70
2022-09-23T09:51:31.028Z,3.10
2022-09-23T09:54:31.147Z,1.80
2022-09-23T09:57:37.222Z,3.10
2022-09-23T10:00:48.018Z,3.20
2022-09-23T10:03:44.215Z,2.27
2022-09-23T10:06:38.477Z,3.43
2022-09-23T10:09:44.977Z,3.73
2022-09-23T10:12:55.112Z,2.20
2022-09-23T10:15:53.305Z,1.90
2022-09-23T10:19:00.235Z,2.80
2022-09-23T10:22:03.063Z,2.60
2022-09-23T10:24:57.419Z,2.17
2022-09-23T10:27:56.051Z,4.53
2022-09-23T10:31:12.432Z,4.20
2022-09-23T10:34:14.717Z,1.80
2022-09-23T10:37:10.851Z,2.80
2022-09-23T10:40:22.813Z,2.27
2022-09-23T10:43:42.834Z,2.17
2022-09-23T10:46:49.147Z,3.30
2022-09-23T10:49:56.265Z,2.40
2022-09-23T10:52:54.253Z,4.13
2022-09-23T10:55:52.714Z,2.60
2022-09-23T10:59:03.019Z,4.37
2022-09-23T11:02:07.878Z,2.07
2022-09-23T11:05:19.401Z,2.63
2022-09-23T11:08:26.844Z,1.80
2022-09-23T11:11:31.348Z,3.50
2022-09-23T11:14:48.897Z,2.50
2022-09-23T11:17:58.496Z,3.73
2022-09-23T11:20:56.549Z,1.70
2022-09-23T11:24:07.099Z,1.80
2022-09-23T11:27:07.147Z,2.00
2022-09-23T11:30:28.858Z,2.87
2022-09-23T11:33:28.911Z,1.83
2022-09-23T11:36:30.779Z,6.57
2022-09-23T11:39:25.186Z,2.55
2022-09-23T11:42:24.746Z,4.88
2022-09-23T11:45:31.832Z,1.88
2022-09-23T11:48:29.499Z,6.93
2022-09-23T11:51:36.867Z,2.55
2022-09-23T11:54:37.972Z,8.88
2022-09-23T11:57:48.603Z,2.60
2022-09-23T12:00:55.310Z,2.80
2022-09-23T12:04:17.267Z,3.42
2022-09-23T12:07:19.078Z,2.92
2022-09-23T12:10:13.211Z,1.95
2022-09-23T12:13:13.277Z,3.22
2022-09-23T12:16:30.101Z,4.75
2022-09-23T12:19:29.769Z,2.45
2022-09-23T12:22:42.739Z,2.75
2022-09-23T12:26:07.534Z,4.57
2022-09-23T12:29:10.162Z,2.05
2022-09-23T12:32:02.269Z,4.03
2022-09-23T12:34:54.551Z,3.78
2022-09-23T12:37:52.818Z,4.88
2022-09-23T12:40:47.813Z,2.78
2022-09-23T12:43:42.016Z,4.47
2022-09-23T12:46:38.239Z,7.13
2022-09-23T12:49:42.837Z,28.00
2022-09-23T12:52:37.901Z,2.87
2022-09-23T12:55:51.999Z,6.17
2022-09-23T12:59:05.476Z,2.10
2022-09-23T13:02:01.250Z,2.27
2022-09-23T13:05:18.809Z,1.92
2022-09-23T13:08:17.472Z,4.95
2022-09-23T13:11:13.016Z,2.92
2022-09-23T13:14:14.100Z,3.38
2022-09-23T13:17:10.292Z,2.08
2022-09-23T13:20:07.619Z,2.27
2022-09-23T13:23:28.289Z,2.27
2022-09-23T13:26:26.499Z,3.13
2022-09-23T13:29:36.477Z,1.93
2022-09-23T13:32:34.970Z,4.73
2022-09-23T13:35:39.975Z,9.53
2022-09-23T13:38:32.215Z,3.40
2022-09-23T13:41:30.222Z,1.83
2022-09-23T13:44:28.051Z,2.20
2022-09-23T13:47:33.736Z,1.50
2022-09-23T13:50:34.993Z,1.50
2022-09-23T13:53:34.436Z,4.70
2022-09-23T13:56:32.730Z,1.53
2022-09-23T13:59:31.203Z,1.90
2022-09-23T14:02:28.890Z,4.33
2022-09-23T14:05:34.623Z,2.70
2022-09-23T14:08:27.881Z,1.87
2022-09-23T14:11:22.505Z,1.60
2022-09-23T14:14:14.828Z,2.30
2022-09-23T14:17:27.772Z,2.63
2022-09-23T14:20:27.316Z,1.70
2022-09-23T14:23:27.835Z,2.60
2022-09-23T14:26:25.771Z,1.83
2022-09-23T14:29:25.268Z,1.70
2022-09-23T14:32:25.474Z,1.87
2022-09-23T14:35:21.623Z,2.30
2022-09-23T14:38:40.010Z,3.23
2022-09-23T14:41:44.877Z,4.83
2022-09-23T14:44:41.350Z,4.83
2022-09-23T14:47:46.056Z,9.40
2022-09-23T14:50:40.129Z,2.53
2022-09-23T14:54:01.594Z,9.40
2022-09-23T14:56:50.980Z,2.90
2022-09-23T14:59:45.984Z,3.20
2022-09-23T15:02:44.267Z,3.10
2022-09-23T15:05:44.816Z,2.80
2022-09-23T15:08:49.088Z,2.90
2022-09-23T15:11:50.639Z,3.10
2022-09-23T15:14:52.358Z,5.23
2022-09-23T15:17:57.681Z,4.60
2022-09-23T15:20:57.911Z,2.50
2022-09-23T15:23:52.880Z,5.93
2022-09-23T15:26:47.318Z,4.07
2022-09-23T15:29:52.640Z,2.70
2022-09-23T15:33:00.937Z,3.40
2022-09-23T15:36:07.814Z,4.00
2022-09-23T15:39:04.090Z,2.37
2022-09-23T15:41:56.316Z,8.77
2022-09-23T15:44:51.755Z,2.50
2022-09-23T15:47:57.984Z,4.83
2022-09-23T15:50:53.231Z,3.03
2022-09-23T15:53:57.376Z,2.53
2022-09-23T15:57:00.870Z,5.40
2022-09-23T16:00:01.563Z,3.67
2022-09-23T16:02:58.893Z,2.20
2022-09-23T16:05:59.858Z,3.00
2022-09-23T16:09:06.835Z,3.30
2022-09-23T16:12:03.224Z,3.80
2022-09-23T16:14:54.621Z,6.73
2022-09-23T16:17:45.833Z,3.87
2022-09-23T16:20:44.431Z,2.93
2022-09-23T16:23:48.191Z,3.00
2022-09-23T16:26:52.212Z,10.33
2022-09-23T16:29:45.652Z,13.00
2022-09-23T16:32:48.583Z,1.93
2022-09-23T16:35:42.839Z,4.00
2022-09-23T16:38:39.705Z,2.93
2022-09-23T16:41:40.845Z,3.83
2022-09-23T16:44:33.937Z,4.20
2022-09-23T16:47:39.842Z,4.93
2022-09-23T16:50:32.704Z,4.50
2022-09-23T16:53:29.105Z,3.73
2022-09-23T16:56:28.236Z,3.40
2022-09-23T17:00:06.897Z,2.50
2022-09-23T17:03:18.187Z,6.43
2022-09-23T17:06:16.226Z,8.20
2022-09-23T17:09:17.389Z,4.07
2022-09-23T17:12:16.953Z,3.77
2022-09-23T17:15:19.636Z,5.33
2022-09-23T17:18:24.953Z,5.83
2022-09-23T17:21:28.775Z,3.70
2022-09-23T17:24:20.257Z,3.40
2022-09-23T17:27:24.158Z,4.97
2022-09-23T17:30:25.287Z,5.87
2022-09-23T17:33:23.049Z,5.80
2022-09-23T17:36:20.700Z,4.87
2022-09-23T17:39:13.402Z,5.73
2022-09-23T17:42:07.263Z,6.40
2022-09-23T17:45:05.062Z,6.47
2022-09-23T17:48:20.223Z,4.50
2022-09-23T17:51:22.881Z,7.40
2022-09-23T17:54:19.723Z,7.50
2022-09-23T17:57:13.362Z,6.33
2022-09-23T18:00:14.216Z,6.10
2022-09-23T18:03:13.649Z,4.70
2022-09-23T18:06:18.244Z,4.20
2022-09-23T18:09:10.235Z,4.90
2022-09-23T18:12:17.682Z,6.90
2022-09-23T18:15:18.176Z,11.33
2022-09-23T18:18:22.060Z,6.60
2022-09-23T18:21:18.500Z,7.07
2022-09-23T18:24:32.453Z,7.30
2022-09-23T18:27:27.206Z,15.27
2022-09-23T18:30:30.096Z,11.20
2022-09-23T18:33:28.279Z,12.53
2022-09-23T18:36:33.000Z,15.40
2022-09-23T18:39:29.683Z,13.40
2022-09-23T18:42:21.027Z,12.77
2022-09-23T18:45:25.638Z,11.77
2022-09-23T18:48:35.945Z,13.73
2022-09-23T18:51:29.812Z,11.00
2022-09-23T18:54:33.444Z,9.97
2022-09-23T18:57:26.124Z,9.73
2022-09-23T19:00:32.699Z,9.50
2022-09-23T19:03:30.585Z,11.57
2022-09-23T19:06:37.944Z,9.37
2022-09-23T19:09:48.991Z,9.37
2022-09-23T19:12:54.344Z,8.90
2022-09-23T19:15:56.539Z,9.47
2022-09-23T19:18:49.618Z,10.70
2022-09-23T19:21:57.620Z,9.90
2022-09-23T19:24:54.098Z,14.13
2022-09-23T19:27:58.010Z,13.73
2022-09-23T19:30:50.105Z,12.47
2022-09-23T19:33:53.445Z,14.87
2022-09-23T19:36:46.213Z,10.60
2022-09-23T19:39:42.822Z,12.13
2022-09-23T19:42:54.559Z,11.03
2022-09-23T19:45:49.241Z,11.10
2022-09-23T19:48:51.441Z,10.83
2022-09-23T19:52:02.686Z,11.70
2022-09-23T19:54:56.387Z,9.93
2022-09-23T19:57:51.430Z,13.20
2022-09-23T20:00:48.440Z,11.13
2022-09-23T20:03:38.998Z,9.60
2022-09-23T20:06:35.142Z,9.90
2022-09-23T20:09:34.642Z,12.67
2022-09-23T20:12:31.681Z,12.30
2022-09-23T20:15:33.195Z,12.63
2022-09-23T20:18:26.692Z,10.73
2022-09-23T20:21:31.147Z,11.60
2022-09-23T20:24:25.371Z,13.70
2022-09-23T20:27:30.421Z,12.70
2022-09-23T20:30:42.700Z,10.53
2022-09-23T20:33:42.412Z,9.33
2022-09-23T20:36:37.830Z,12.33
2022-09-23T20:39:36.779Z,12.63
2022-09-23T20:42:40.797Z,10.80
2022-09-23T20:45:37.837Z,9.93
2022-09-23T20:48:30.458Z,13.33
2022-09-23T20:51:31.045Z,10.47
2022-09-23T20:54:29.156Z,8.87
2022-09-23T20:57:21.272Z,11.00
2022-09-23T21:00:21.437Z,10.60
2022-09-23T21:03:15.325Z,11.10
2022-09-23T21:06:07.535Z,10.87
2022-09-23T21:09:18.746Z,13.90
2022-09-23T21:12:22.855Z,9.47
2022-09-23T21:15:22.952Z,11.07
2022-09-23T21:18:27.858Z,10.97
2022-09-23T21:21:22.050Z,11.33
2022-09-23T21:27:51.480Z,10.87
2022-09-23T21:30:55.632Z,11.07
2022-09-23T21:33:58.564Z,11.23
2022-09-23T21:36:58.660Z,12.33
2022-09-23T21:40:09.032Z,11.20
2022-09-23T21:43:01.785Z,16.00
2022-09-23T21:46:02.499Z,17.67
2022-09-23T21:49:07.534Z,18.47
2022-09-23T21:52:11.468Z,16.90
2022-09-23T21:55:15.237Z,14.67
2022-09-23T21:58:16.675Z,16.50
2022-09-23T22:01:12.765Z,13.77
2022-09-23T22:04:12.662Z,11.17
2022-09-23T22:07:07.810Z,12.13
2022-09-23T22:10:09.527Z,16.10
2022-09-23T22:13:19.296Z,13.37
2022-09-23T22:16:18.527Z,10.83
2022-09-23T22:19:22.276Z,10.80
2022-09-23T22:22:14.400Z,10.83
2022-09-23T22:25:06.974Z,10.63
2022-09-23T22:28:17.691Z,9.67
2022-09-23T22:31:38.573Z,11.23
2022-09-23T22:34:49.412Z,8.73
2022-09-23T22:37:55.246Z,11.57
2022-09-23T22:40:49.857Z,9.53
2022-09-23T22:43:46.596Z,8.30
2022-09-23T22:46:42.589Z,9.20
2022-09-23T22:49:36.180Z,9.83
2022-09-23T22:52:34.386Z,9.63
2022-09-23T22:55:32.688Z,9.07
2022-09-23T22:58:32.304Z,8.00
2022-09-23T23:01:32.514Z,11.67
2022-09-23T23:04:37.316Z,8.30
2022-09-23T23:07:38.126Z,9.33
2022-09-23T23:10:41.270Z,14.07
2022-09-23T23:13:36.006Z,9.40
2022-09-23T23:16:30.918Z,10.00
2022-09-23T23:19:31.699Z,9.73
2022-09-23T23:22:35.066Z,10.80
2022-09-23T23:25:37.007Z,11.17
2022-09-23T23:28:40.866Z,11.30
2022-09-23T23:31:39.336Z,9.93
2022-09-23T23:34:36.996Z,10.20
2022-09-23T23:37:37.520Z,8.63
2022-09-23T23:40:41.788Z,11.33
2022-09-23T23:43:46.718Z,8.67
2022-09-23T23:46:51.241Z,11.93
2022-09-23T23:49:47.302Z,10.00
2022-09-23T23:52:56.017Z,11.80
2022-09-23T23:55:49.946Z,12.07
2022-09-23T23:58:41.948Z,8.83
